Airfield :
LOGIN :

Register | Disclaimer

   EN    FR    IT 

 










Legend :    VFR   Marginal VFR   IFR   Intensive IFR   Very Intensive IFR
Visi :
Ceiling :
>= 8 km
>= 3000ft
5 to 8 km
1000 to 3000 ft
1500m to 5 km
500 to 1000 ft
800 to 1500m
200 to 500 ft
< 800m
< 200 ft
Symbols :   Thunderstorms  Fog  Heavy snow  Heavy precipitations  Wind > 20 kt
SIGMETs :     Misc.  Thunderstorms  Icing  Turbulence  Mountain Waves  Volcanic Ashes






- Airport Elevation : 17 ft
- IATA code : GRS


LIRS - Grosseto

CURRENT METAR :
  • 030955Z 25009KT 190V300 9999 FEW030 25/15 Q1011 RMK FEW VIS MIN 9999 WIND THR03 26009KT 220V310 WIND THR21 26007KT 200V350 BLU

EXPIRED METARs :
  • 030855Z 24005KT 9999 FEW030 24/14 Q1011 RMK FEW VIS MIN 9999 WIND THR03 VRB04KT WIND THR21 34003KT 270V060 BLU
  • 030755Z 36004KT 280V070 9999 FEW030 23/13 Q1011 RMK FEW VIS MIN 9999 WIND THR03 04002KT WIND THR21 VRB03KT BLU

TAF TAF LIRS
Valid from the 03 at 09:00 until the 03 at 18:00 UTC


030800Z 0309/0318 23010KT 9999 FEW025



MET'MAP, your aeronautical weather chart ! - Copyright ORBIFLY December 2007 - Disclaimer

ORBIFLY MET'MAP TEAM :

Programming & Development : Alexandra Zaïnal
Concept & original design : Baudouin d'Aumeries
Assistance for programming : Marc-Olivier Méhu
Technical & hardware support : Manuel Goepfert

Contact : metmap@orbifly.com




SOURCES & CREDITS :

   NOAA